createdAt,value
2019-03-06T00:00:43.411Z,10.85
2019-03-06T00:03:16.341Z,11.08
2019-03-06T00:05:48.101Z,11.83
2019-03-06T00:08:19.389Z,11.85
2019-03-06T00:10:50.534Z,11.68
2019-03-06T00:13:21.757Z,11.70
2019-03-06T00:15:53.029Z,12.55
2019-03-06T00:18:28.164Z,11.75
2019-03-06T00:20:59.438Z,13.18
2019-03-06T00:23:30.529Z,13.38
2019-03-06T00:26:02.245Z,18.17
2019-03-06T00:28:35.675Z,13.40
2019-03-06T00:31:06.794Z,13.53
2019-03-06T00:33:37.987Z,13.08
2019-03-06T00:36:11.227Z,15.20
2019-03-06T00:38:42.575Z,14.60
2019-03-06T00:41:31.325Z,14.87
2019-03-06T00:44:03.968Z,15.03
2019-03-06T00:46:35.205Z,16.05
2019-03-06T00:49:06.287Z,16.02
2019-03-06T00:51:37.368Z,16.05
2019-03-06T00:54:08.437Z,16.15
2019-03-06T00:56:39.604Z,16.82
2019-03-06T00:59:10.647Z,16.77
2019-03-06T01:01:41.724Z,17.42
2019-03-06T01:04:12.897Z,17.27
2019-03-06T01:06:44.130Z,16.73
2019-03-06T01:09:15.393Z,16.57
2019-03-06T01:11:46.685Z,17.48
2019-03-06T01:14:17.776Z,17.00
2019-03-06T01:16:48.951Z,16.75
2019-03-06T01:19:27.885Z,16.97
2019-03-06T01:21:59.081Z,18.13
2019-03-06T01:24:30.204Z,18.00
2019-03-06T01:27:01.415Z,18.23
2019-03-06T01:29:32.595Z,18.45
2019-03-06T01:32:03.831Z,18.17
2019-03-06T01:34:48.698Z,19.27
2019-03-06T01:37:24.353Z,19.17
2019-03-06T01:39:57.053Z,18.42
2019-03-06T01:42:29.881Z,18.37
2019-03-06T01:45:00.926Z,19.25
2019-03-06T01:47:33.352Z,19.05
2019-03-06T01:50:06.792Z,18.90
2019-03-06T01:52:37.827Z,20.20
2019-03-06T01:55:14.782Z,18.37
2019-03-06T01:57:45.927Z,18.55
2019-03-06T02:00:17.777Z,18.12
2019-03-06T02:02:49.092Z,18.55
2019-03-06T02:05:20.233Z,18.75
2019-03-06T02:07:53.371Z,18.20
2019-03-06T02:10:24.675Z,17.15
2019-03-06T02:12:55.894Z,16.55
2019-03-06T02:15:27.114Z,17.27
2019-03-06T02:17:58.353Z,16.48
2019-03-06T02:20:29.589Z,14.93
2019-03-06T02:23:00.803Z,15.08
2019-03-06T02:25:32.284Z,15.88
2019-03-06T02:28:05.610Z,15.32
2019-03-06T02:30:36.718Z,14.23
2019-03-06T02:33:07.810Z,14.60
2019-03-06T02:35:39.292Z,14.55
2019-03-06T02:38:11.755Z,15.30
2019-03-06T02:40:42.962Z,14.83
2019-03-06T02:43:14.212Z,14.58
2019-03-06T02:45:45.314Z,14.55
2019-03-06T02:48:16.417Z,15.70
2019-03-06T02:50:47.544Z,15.58
2019-03-06T02:53:18.752Z,17.45
2019-03-06T02:55:49.844Z,16.05
2019-03-06T02:58:22.826Z,16.60
2019-03-06T03:00:58.327Z,14.70
2019-03-06T03:03:31.273Z,14.93
2019-03-06T03:06:04.052Z,15.60
2019-03-06T03:08:36.465Z,15.60
2019-03-06T03:11:07.608Z,15.88
2019-03-06T03:13:38.803Z,14.85
2019-03-06T03:16:09.829Z,14.47
2019-03-06T03:18:41.292Z,13.68
2019-03-06T03:21:13.115Z,13.40
2019-03-06T03:23:44.293Z,13.50
2019-03-06T03:26:15.371Z,14.55
2019-03-06T03:28:46.517Z,14.13
2019-03-06T03:31:19.265Z,14.43
2019-03-06T03:33:50.402Z,14.35
2019-03-06T03:36:21.661Z,14.35
2019-03-06T03:38:53.574Z,14.75
2019-03-06T03:41:24.866Z,14.85
2019-03-06T03:43:56.068Z,13.88
2019-03-06T03:46:27.362Z,14.65
2019-03-06T03:49:00.694Z,14.95
2019-03-06T03:51:32.016Z,14.25
2019-03-06T03:54:03.223Z,14.65
2019-03-06T03:56:34.234Z,14.85
2019-03-06T03:59:05.404Z,15.13
2019-03-06T04:01:36.569Z,14.43
2019-03-06T04:04:07.822Z,14.33
2019-03-06T04:06:38.892Z,16.07
2019-03-06T04:09:10.154Z,16.12
2019-03-06T04:11:41.400Z,15.15
2019-03-06T04:14:14.161Z,16.20
2019-03-06T04:16:47.040Z,15.40
2019-03-06T04:19:18.269Z,15.88
2019-03-06T04:21:49.785Z,15.23
2019-03-06T04:24:21.043Z,15.63
2019-03-06T04:26:52.048Z,14.55
2019-03-06T04:29:23.302Z,14.98
2019-03-06T04:31:54.367Z,14.73
2019-03-06T04:34:25.535Z,14.68
2019-03-06T04:36:56.946Z,14.38
2019-03-06T04:39:28.231Z,15.20
2019-03-06T04:42:00.188Z,14.98
2019-03-06T04:44:31.442Z,15.32
2019-03-06T04:47:02.456Z,14.65
2019-03-06T04:49:34.956Z,14.13
2019-03-06T04:52:06.394Z,13.95
2019-03-06T04:54:37.549Z,14.53
2019-03-06T04:57:08.878Z,15.63
2019-03-06T04:59:41.250Z,14.65
2019-03-06T05:02:12.327Z,14.43
2019-03-06T05:04:43.483Z,14.10
2019-03-06T05:07:14.796Z,14.55
2019-03-06T05:09:46.210Z,14.38
2019-03-06T05:12:17.303Z,15.35
2019-03-06T05:14:48.829Z,14.85
2019-03-06T05:17:30.479Z,14.33
2019-03-06T05:20:01.743Z,14.80
2019-03-06T05:22:33.209Z,14.55
2019-03-06T05:25:06.294Z,14.93
2019-03-06T05:27:37.490Z,14.43
2019-03-06T05:30:13.976Z,15.43
2019-03-06T05:32:50.841Z,15.10
2019-03-06T05:35:37.160Z,14.07
2019-03-06T05:38:11.505Z,14.05
2019-03-06T05:40:43.565Z,14.10
2019-03-06T05:43:14.971Z,14.58
2019-03-06T05:45:46.142Z,13.62
2019-03-06T05:48:17.348Z,14.93
2019-03-06T05:50:48.627Z,13.68
2019-03-06T05:53:20.237Z,14.20
2019-03-06T05:55:51.480Z,13.83
2019-03-06T05:58:22.655Z,13.65
2019-03-06T06:00:54.639Z,14.58
2019-03-06T06:03:27.538Z,13.45
2019-03-06T06:05:58.685Z,13.62
2019-03-06T06:08:29.921Z,13.80
2019-03-06T06:11:02.137Z,13.72
2019-03-06T06:13:34.759Z,14.55
2019-03-06T06:16:06.071Z,13.32
2019-03-06T06:18:38.949Z,13.80
2019-03-06T06:21:23.752Z,12.25
2019-03-06T06:24:00.239Z,13.40
2019-03-06T06:26:31.863Z,12.00
2019-03-06T06:29:05.091Z,12.50
2019-03-06T06:31:38.917Z,11.83
2019-03-06T06:34:14.959Z,11.35
2019-03-06T06:36:46.326Z,12.73
2019-03-06T06:39:17.621Z,12.50
2019-03-06T06:41:48.740Z,12.23
2019-03-06T06:44:19.910Z,12.68
2019-03-06T06:46:54.391Z,12.03
2019-03-06T06:49:25.593Z,13.60
2019-03-06T06:52:18.321Z,12.47
2019-03-06T06:55:14.270Z,13.43
2019-03-06T06:58:00.758Z,13.80
2019-03-06T07:00:52.338Z,13.80
2019-03-06T07:03:28.381Z,14.30
2019-03-06T07:06:01.202Z,15.50
2019-03-06T07:08:37.878Z,14.65
2019-03-06T07:11:13.868Z,14.30
2019-03-06T07:13:47.112Z,14.93
2019-03-06T07:16:25.808Z,14.03
2019-03-06T07:19:04.651Z,14.38
2019-03-06T07:21:48.559Z,15.45
2019-03-06T07:24:27.382Z,15.35
2019-03-06T07:27:22.300Z,15.18
2019-03-06T07:30:13.244Z,16.85
2019-03-06T07:32:50.335Z,15.10
2019-03-06T07:36:05.784Z,14.43
2019-03-06T07:38:37.073Z,14.10
2019-03-06T07:41:26.585Z,12.82
2019-03-06T07:43:59.409Z,13.93
2019-03-06T07:46:35.153Z,14.33
2019-03-06T07:49:19.883Z,14.35
2019-03-06T07:52:09.118Z,15.55
2019-03-06T07:54:42.032Z,14.58
2019-03-06T07:57:14.916Z,14.13
2019-03-06T07:59:46.463Z,15.28
2019-03-06T08:02:25.292Z,14.55
2019-03-06T08:04:58.099Z,13.43
2019-03-06T08:07:29.607Z,14.60
2019-03-06T08:10:00.860Z,14.38
2019-03-06T08:12:36.022Z,14.73
2019-03-06T08:15:16.905Z,13.40
2019-03-06T08:17:49.778Z,11.88
2019-03-06T08:20:22.641Z,12.73
2019-03-06T08:23:12.061Z,13.53
2019-03-06T08:25:48.428Z,15.90
2019-03-06T08:28:19.995Z,15.03
2019-03-06T08:30:52.775Z,15.48
2019-03-06T08:33:24.021Z,14.23
2019-03-06T08:35:55.637Z,14.55
2019-03-06T08:38:26.814Z,20.27
2019-03-06T08:41:04.319Z,13.10
2019-03-06T08:43:32.244Z,12.98
2019-03-06T08:46:07.929Z,13.05
2019-03-06T08:48:46.842Z,12.60
2019-03-06T08:51:25.918Z,13.17
2019-03-06T08:53:58.724Z,12.88
2019-03-06T08:56:35.540Z,12.78
2019-03-06T08:59:20.478Z,11.78
2019-03-06T09:02:00.490Z,12.63
2019-03-06T09:04:34.056Z,12.58
2019-03-06T09:07:18.945Z,13.25
2019-03-06T09:10:10.965Z,11.78
2019-03-06T09:12:49.555Z,11.95
2019-03-06T09:15:23.869Z,12.05
2019-03-06T09:18:21.840Z,10.75
2019-03-06T09:23:40.983Z,11.57
2019-03-06T09:26:30.282Z,12.15
2019-03-06T09:29:11.117Z,12.55
2019-03-06T09:31:44.104Z,12.20
2019-03-06T09:34:25.847Z,10.45
2019-03-06T09:37:04.751Z,8.73
2019-03-06T09:39:37.684Z,7.70
2019-03-06T09:42:15.321Z,8.30
2019-03-06T09:44:57.133Z,7.33
2019-03-06T09:47:30.436Z,7.67
2019-03-06T09:50:03.667Z,9.70
2019-03-06T09:52:48.608Z,9.70
2019-03-06T09:55:33.538Z,14.80
2019-03-06T09:58:08.025Z,11.73
2019-03-06T10:00:53.379Z,12.43
2019-03-06T10:03:37.270Z,11.38
2019-03-06T10:06:13.994Z,10.25
2019-03-06T10:08:47.199Z,9.78
2019-03-06T10:11:20.614Z,8.55
2019-03-06T10:13:56.133Z,9.98
2019-03-06T10:16:48.753Z,11.28
2019-03-06T10:19:18.802Z,10.93
2019-03-06T10:21:50.080Z,11.12
2019-03-06T10:24:22.957Z,10.35
2019-03-06T10:26:54.959Z,10.38
2019-03-06T10:29:26.983Z,7.92
2019-03-06T10:31:58.240Z,9.85
2019-03-06T10:34:30.696Z,8.13
2019-03-06T10:37:02.251Z,9.93
2019-03-06T10:39:33.825Z,10.20
2019-03-06T10:42:05.141Z,8.20
2019-03-06T10:44:38.490Z,8.13
2019-03-06T10:47:09.838Z,7.17
2019-03-06T10:49:41.474Z,7.37
2019-03-06T10:52:12.750Z,7.53
2019-03-06T10:54:44.879Z,7.58
2019-03-06T10:57:16.451Z,8.15
2019-03-06T10:59:47.698Z,7.20
2019-03-06T11:02:19.147Z,8.05
2019-03-06T11:04:52.181Z,7.03
2019-03-06T11:07:23.326Z,7.37
2019-03-06T11:09:54.651Z,7.00
2019-03-06T11:12:25.844Z,5.03
2019-03-06T11:14:57.207Z,5.10
2019-03-06T11:17:28.565Z,14.33
2019-03-06T11:20:00.324Z,7.53
2019-03-06T11:22:31.607Z,3.45
2019-03-06T11:25:02.946Z,3.87
2019-03-06T11:27:35.371Z,3.08
2019-03-06T11:30:12.696Z,3.15
2019-03-06T11:32:44.089Z,4.33
2019-03-06T11:35:18.455Z,4.10
2019-03-06T11:37:51.314Z,3.35
2019-03-06T11:40:22.650Z,2.90
2019-03-06T11:42:53.940Z,3.60
2019-03-06T11:45:25.648Z,3.80
2019-03-06T11:47:57.075Z,4.22
2019-03-06T11:50:40.391Z,4.50
2019-03-06T11:53:06.204Z,4.33
2019-03-06T11:55:38.063Z,4.00
2019-03-06T11:58:16.992Z,3.72
2019-03-06T12:00:52.828Z,4.55
2019-03-06T12:03:24.988Z,4.20
2019-03-06T12:05:57.772Z,4.78
2019-03-06T12:08:29.053Z,4.25
2019-03-06T12:11:00.776Z,4.47
2019-03-06T12:13:40.443Z,5.22
2019-03-06T12:16:16.804Z,4.40
2019-03-06T12:18:58.682Z,4.33
2019-03-06T12:21:31.461Z,5.22
2019-03-06T12:24:04.814Z,4.25
2019-03-06T12:26:36.753Z,4.20
2019-03-06T12:29:09.524Z,4.08
2019-03-06T12:31:40.822Z,4.17
2019-03-06T12:34:12.126Z,4.35
2019-03-06T12:36:45.470Z,4.58
2019-03-06T12:39:18.354Z,3.95
2019-03-06T12:41:49.998Z,4.22
2019-03-06T12:44:22.272Z,4.78
2019-03-06T12:46:57.545Z,4.95
2019-03-06T12:49:31.315Z,4.90
2019-03-06T12:52:04.841Z,5.78
2019-03-06T12:54:36.077Z,5.08
2019-03-06T12:57:07.629Z,5.10
2019-03-06T12:59:38.874Z,4.67
2019-03-06T13:02:10.095Z,5.10
2019-03-06T13:04:42.344Z,5.12
2019-03-06T13:07:13.610Z,5.08
2019-03-06T13:09:45.038Z,5.28
2019-03-06T13:12:16.607Z,5.47
2019-03-06T13:14:48.049Z,5.80
2019-03-06T13:17:19.306Z,5.67
2019-03-06T13:19:50.561Z,5.78
2019-03-06T13:22:21.755Z,5.17
2019-03-06T13:24:53.272Z,9.33
2019-03-06T13:27:24.559Z,4.45
2019-03-06T13:29:55.847Z,5.08
2019-03-06T13:32:28.753Z,5.42
2019-03-06T13:35:00.249Z,5.08
2019-03-06T13:37:31.574Z,5.83
2019-03-06T13:40:03.432Z,5.83
2019-03-06T13:42:35.995Z,5.75
2019-03-06T13:45:12.996Z,5.90
2019-03-06T13:47:44.401Z,5.45
2019-03-06T13:50:16.629Z,5.30
2019-03-06T13:52:51.750Z,5.55
2019-03-06T13:55:22.949Z,6.70
2019-03-06T13:57:54.406Z,6.10
2019-03-06T14:00:26.748Z,5.78
2019-03-06T14:02:58.005Z,5.53
2019-03-06T14:05:29.194Z,5.00
2019-03-06T14:08:01.007Z,5.20
2019-03-06T14:10:32.992Z,5.62
2019-03-06T14:13:04.564Z,5.35
2019-03-06T14:15:35.716Z,5.40
2019-03-06T14:18:07.052Z,5.10
2019-03-06T14:20:38.471Z,5.30
2019-03-06T14:23:09.993Z,5.50
2019-03-06T14:25:44.886Z,5.35
2019-03-06T14:28:16.163Z,5.72
2019-03-06T14:30:47.826Z,5.40
2019-03-06T14:33:19.320Z,5.65
2019-03-06T14:35:51.813Z,5.50
2019-03-06T14:38:25.031Z,6.08
2019-03-06T14:40:56.311Z,5.85
2019-03-06T14:43:27.489Z,6.92
2019-03-06T14:45:58.692Z,6.40
2019-03-06T14:48:30.020Z,6.62
2019-03-06T14:51:01.340Z,7.00
2019-03-06T14:53:32.577Z,7.58
2019-03-06T14:56:03.830Z,9.05
2019-03-06T14:58:35.194Z,8.30
2019-03-06T15:01:06.675Z,7.92
2019-03-06T15:03:38.935Z,7.92
2019-03-06T15:06:10.072Z,9.10
2019-03-06T15:08:41.447Z,8.55
2019-03-06T15:11:12.650Z,10.05
2019-03-06T15:13:43.834Z,9.95
2019-03-06T15:16:17.121Z,10.70
2019-03-06T15:18:48.376Z,11.33
2019-03-06T15:21:19.750Z,11.20
2019-03-06T15:23:51.127Z,37.17
2019-03-06T15:26:22.326Z,12.13
2019-03-06T15:28:53.767Z,13.72
2019-03-06T15:31:25.024Z,13.70
2019-03-06T15:33:56.536Z,15.78
2019-03-06T15:36:27.913Z,13.98
2019-03-06T15:38:59.242Z,14.45
2019-03-06T15:41:31.899Z,14.93
2019-03-06T15:44:03.087Z,14.10
2019-03-06T15:46:34.375Z,12.33
2019-03-06T15:49:06.118Z,11.50
2019-03-06T15:51:37.181Z,12.90
2019-03-06T15:54:10.748Z,12.25
2019-03-06T15:56:42.316Z,11.93
2019-03-06T15:59:15.174Z,13.83
2019-03-06T16:01:46.593Z,14.65
2019-03-06T16:04:17.838Z,13.85
2019-03-06T16:06:53.910Z,13.83
2019-03-06T16:09:23.062Z,14.87
2019-03-06T16:11:54.321Z,15.00
2019-03-06T16:14:25.603Z,13.88
2019-03-06T16:16:56.751Z,14.03
2019-03-06T16:19:28.032Z,14.20
2019-03-06T16:21:59.220Z,14.87
2019-03-06T16:24:31.132Z,43.42
2019-03-06T16:27:02.319Z,17.15
2019-03-06T16:29:33.552Z,17.10
2019-03-06T16:32:04.755Z,17.80
2019-03-06T16:34:36.237Z,17.12
2019-03-06T16:37:09.096Z,16.52
2019-03-06T16:39:40.628Z,16.17
2019-03-06T16:42:11.715Z,18.12
2019-03-06T16:44:42.916Z,18.77
2019-03-06T16:47:14.358Z,27.73
2019-03-06T16:49:45.759Z,21.12
2019-03-06T16:52:17.162Z,22.95
2019-03-06T16:54:48.515Z,23.67
2019-03-06T16:57:19.929Z,22.85
2019-03-06T16:59:51.252Z,22.17
2019-03-06T17:02:22.612Z,21.12
2019-03-06T17:04:54.270Z,21.65
2019-03-06T17:07:25.350Z,20.95
2019-03-06T17:09:56.813Z,19.25
2019-03-06T17:12:28.016Z,18.73
2019-03-06T17:15:00.347Z,17.37
2019-03-06T17:17:31.546Z,16.77
2019-03-06T17:20:02.647Z,17.90
2019-03-06T17:22:35.980Z,18.23
2019-03-06T17:25:08.578Z,23.12
2019-03-06T17:27:40.915Z,31.87
2019-03-06T17:30:32.319Z,32.40
2019-03-06T17:33:12.913Z,34.63
2019-03-06T17:35:44.313Z,32.25
2019-03-06T17:38:20.062Z,32.85
2019-03-06T17:40:51.287Z,33.28
2019-03-06T17:43:24.577Z,33.63
2019-03-06T17:45:55.595Z,32.85
2019-03-06T17:48:31.221Z,31.95
2019-03-06T17:51:02.509Z,31.20
2019-03-06T17:53:33.774Z,32.08
2019-03-06T17:56:05.255Z,29.35
2019-03-06T17:58:36.670Z,28.55
2019-03-06T18:01:09.555Z,26.35
2019-03-06T18:03:45.158Z,24.43
2019-03-06T18:06:16.341Z,21.15
2019-03-06T18:08:47.576Z,20.37
2019-03-06T18:11:21.699Z,21.20
2019-03-06T18:13:53.158Z,22.35
2019-03-06T18:16:24.983Z,23.57
2019-03-06T18:18:57.827Z,26.95
2019-03-06T18:21:29.213Z,28.95
2019-03-06T18:24:00.369Z,28.50
2019-03-06T18:26:32.061Z,30.95
2019-03-06T18:29:04.219Z,30.57
2019-03-06T18:31:36.332Z,32.23
2019-03-06T18:34:07.388Z,31.45
2019-03-06T18:36:41.547Z,31.60
2019-03-06T18:39:14.446Z,32.48
2019-03-06T18:41:45.720Z,31.37
2019-03-06T18:44:17.388Z,30.62
2019-03-06T18:46:48.496Z,29.67
2019-03-06T18:49:20.546Z,28.27
2019-03-06T18:51:51.798Z,28.73
2019-03-06T18:54:24.879Z,28.35
2019-03-06T18:56:56.398Z,29.45
2019-03-06T18:59:30.512Z,28.60
2019-03-06T19:02:02.203Z,30.25
2019-03-06T19:04:33.388Z,27.35
2019-03-06T19:07:04.464Z,26.42
2019-03-06T19:09:35.735Z,25.20
2019-03-06T19:12:07.603Z,26.70
2019-03-06T19:14:38.973Z,25.48
2019-03-06T19:17:10.014Z,26.10
2019-03-06T19:19:41.156Z,27.13
2019-03-06T19:22:12.346Z,30.37
2019-03-06T19:24:43.518Z,35.08
2019-03-06T19:27:14.728Z,38.75
2019-03-06T19:29:46.014Z,38.33
2019-03-06T19:32:17.348Z,36.95
2019-03-06T19:34:48.602Z,35.38
2019-03-06T19:37:23.063Z,33.70
2019-03-06T19:39:54.318Z,32.33
2019-03-06T19:42:25.656Z,28.90
2019-03-06T19:44:56.934Z,29.40
2019-03-06T19:47:29.662Z,28.42
2019-03-06T19:50:00.832Z,26.02
2019-03-06T19:52:32.010Z,25.97
2019-03-06T19:55:03.212Z,24.55
2019-03-06T19:57:37.741Z,22.05
2019-03-06T20:00:15.983Z,21.35
2019-03-06T20:02:50.681Z,19.40
2019-03-06T20:05:22.561Z,19.73
2019-03-06T20:07:55.308Z,19.37
2019-03-06T20:10:26.512Z,19.98
2019-03-06T20:12:57.844Z,20.40
2019-03-06T20:15:29.022Z,22.17
2019-03-06T20:18:00.178Z,21.10
2019-03-06T20:20:38.003Z,23.40
2019-03-06T20:23:09.269Z,21.15
2019-03-06T20:25:40.625Z,23.35
2019-03-06T20:28:12.051Z,20.88
2019-03-06T20:30:46.929Z,20.55
2019-03-06T20:33:19.320Z,21.90
2019-03-06T20:35:50.726Z,20.72
2019-03-06T20:38:21.999Z,20.10
2019-03-06T20:40:54.201Z,20.37
2019-03-06T20:43:25.548Z,20.40
2019-03-06T20:45:56.846Z,21.40
2019-03-06T20:48:28.830Z,22.93
2019-03-06T20:51:00.907Z,23.98
2019-03-06T20:53:35.205Z,22.62
2019-03-06T20:56:06.433Z,22.17
2019-03-06T20:58:37.696Z,21.68
2019-03-06T21:01:09.967Z,21.48
2019-03-06T21:03:41.431Z,21.68
2019-03-06T21:06:12.639Z,20.02
2019-03-06T21:08:43.951Z,20.62
2019-03-06T21:11:15.286Z,20.48
2019-03-06T21:13:46.558Z,20.15
2019-03-06T21:16:17.747Z,19.98
2019-03-06T21:18:48.920Z,19.00
2019-03-06T21:21:20.129Z,19.02
2019-03-06T21:23:51.257Z,19.12
2019-03-06T21:26:22.597Z,18.67
2019-03-06T21:28:54.043Z,18.23
2019-03-06T21:31:25.305Z,19.25
2019-03-06T21:33:56.539Z,19.27
2019-03-06T21:36:27.740Z,34.43
2019-03-06T21:38:59.097Z,23.57
2019-03-06T21:41:31.607Z,21.75
2019-03-06T21:44:03.084Z,20.60
2019-03-06T21:46:34.205Z,19.20
2019-03-06T21:49:05.495Z,19.37
2019-03-06T21:51:36.691Z,18.60
2019-03-06T21:54:07.885Z,17.62
2019-03-06T21:56:39.436Z,18.23
2019-03-06T21:59:10.641Z,17.98
2019-03-06T22:01:41.959Z,34.53
2019-03-06T22:04:13.165Z,15.28
2019-03-06T22:06:44.410Z,14.33
2019-03-06T22:09:15.650Z,12.23
2019-03-06T22:11:46.944Z,13.38
2019-03-06T22:14:21.024Z,13.53
2019-03-06T22:16:51.641Z,13.43
2019-03-06T22:19:22.961Z,12.65
2019-03-06T22:21:54.342Z,12.20
2019-03-06T22:24:25.490Z,12.07
2019-03-06T22:26:59.276Z,12.00
2019-03-06T22:29:30.498Z,12.82
2019-03-06T22:32:02.597Z,12.75
2019-03-06T22:34:33.741Z,12.35
2019-03-06T22:37:04.890Z,12.28
2019-03-06T22:39:38.283Z,11.30
2019-03-06T22:42:09.679Z,12.25
2019-03-06T22:44:40.916Z,10.70
2019-03-06T22:47:12.408Z,10.82
2019-03-06T22:49:43.457Z,10.78
2019-03-06T22:52:14.597Z,11.68
2019-03-06T22:54:45.905Z,31.37
2019-03-06T22:57:17.214Z,11.03
2019-03-06T22:59:48.392Z,12.47
2019-03-06T23:02:21.484Z,12.95
2019-03-06T23:04:52.641Z,12.28
2019-03-06T23:07:23.974Z,11.80
2019-03-06T23:09:55.171Z,11.57
2019-03-06T23:12:26.353Z,11.53
2019-03-06T23:14:57.815Z,11.50
2019-03-06T23:17:28.942Z,10.60
2019-03-06T23:20:00.213Z,11.00
2019-03-06T23:22:31.714Z,13.25
2019-03-06T23:25:03.404Z,12.75
2019-03-06T23:27:34.751Z,13.08
2019-03-06T23:30:14.172Z,11.83
2019-03-06T23:32:49.364Z,12.53
2019-03-06T23:35:20.499Z,13.22
2019-03-06T23:37:51.703Z,17.60
2019-03-06T23:40:22.843Z,15.25
2019-03-06T23:42:53.908Z,12.93
2019-03-06T23:45:25.887Z,13.48
2019-03-06T23:47:57.065Z,12.55
2019-03-06T23:50:28.132Z,13.10
2019-03-06T23:53:10.365Z,13.40
2019-03-06T23:55:41.826Z,12.00
2019-03-06T23:58:12.953Z,12.33
